sensor_id;sensor_type;location;lat;lon;timestamp;P1;durP1;ratioP1;P2;durP2;ratioP2
70414;SDS011;57837;52.064;113.478;2022-10-16T00:01:10;5.57;;;2.22;;
70414;SDS011;57837;52.064;113.478;2022-10-16T00:04:17;5.97;;;2.00;;
70414;SDS011;57837;52.064;113.478;2022-10-16T00:07:21;5.13;;;1.75;;
70414;SDS011;57837;52.064;113.478;2022-10-16T00:10:25;4.18;;;2.13;;
70414;SDS011;57837;52.064;113.478;2022-10-16T00:13:28;9.00;;;2.30;;
70414;SDS011;57837;52.064;113.478;2022-10-16T00:16:32;8.57;;;3.00;;
70414;SDS011;57837;52.064;113.478;2022-10-16T00:19:37;10.97;;;3.20;;
70414;SDS011;57837;52.064;113.478;2022-10-16T00:22:41;7.35;;;3.00;;
70414;SDS011;57837;52.064;113.478;2022-10-16T00:25:45;9.40;;;3.55;;
70414;SDS011;57837;52.064;113.478;2022-10-16T00:28:57;17.85;;;6.10;;
70414;SDS011;57837;52.064;113.478;2022-10-16T00:32:01;13.38;;;7.10;;
70414;SDS011;57837;52.064;113.478;2022-10-16T00:35:05;6.47;;;3.07;;
70414;SDS011;57837;52.064;113.478;2022-10-16T00:38:08;7.03;;;2.13;;
70414;SDS011;57837;52.064;113.478;2022-10-16T00:41:17;6.70;;;2.65;;
70414;SDS011;57837;52.064;113.478;2022-10-16T00:47:49;3.90;;;1.50;;
70414;SDS011;57837;52.064;113.478;2022-10-16T00:50:57;3.90;;;1.70;;
70414;SDS011;57837;52.064;113.478;2022-10-16T00:54:06;6.03;;;2.35;;
70414;SDS011;57837;52.064;113.478;2022-10-16T00:57:13;5.63;;;2.00;;
70414;SDS011;57837;52.064;113.478;2022-10-16T01:00:19;16.38;;;7.15;;
70414;SDS011;57837;52.064;113.478;2022-10-16T01:03:31;9.70;;;2.95;;
70414;SDS011;57837;52.064;113.478;2022-10-16T01:10:14;6.03;;;2.42;;
70414;SDS011;57837;52.064;113.478;2022-10-16T01:13:32;4.60;;;1.85;;
70414;SDS011;57837;52.064;113.478;2022-10-16T01:16:53;4.38;;;1.80;;
70414;SDS011;57837;52.064;113.478;2022-10-16T01:36:35;5.60;;;1.70;;
70414;SDS011;57837;52.064;113.478;2022-10-16T01:39:42;4.43;;;1.50;;
70414;SDS011;57837;52.064;113.478;2022-10-16T01:42:52;6.18;;;1.80;;
70414;SDS011;57837;52.064;113.478;2022-10-16T01:46:02;7.75;;;2.80;;
70414;SDS011;57837;52.064;113.478;2022-10-16T01:49:07;3.80;;;1.35;;
70414;SDS011;57837;52.064;113.478;2022-10-16T01:52:14;2.65;;;1.08;;
70414;SDS011;57837;52.064;113.478;2022-10-16T01:55:31;2.37;;;0.80;;
70414;SDS011;57837;52.064;113.478;2022-10-16T01:58:49;1.80;;;0.90;;
70414;SDS011;57837;52.064;113.478;2022-10-16T02:01:58;3.08;;;1.20;;
70414;SDS011;57837;52.064;113.478;2022-10-16T02:05:16;1.90;;;0.90;;
70414;SDS011;57837;52.064;113.478;2022-10-16T02:08:25;2.60;;;0.80;;
70414;SDS011;57837;52.064;113.478;2022-10-16T02:11:32;4.30;;;1.27;;
70414;SDS011;57837;52.064;113.478;2022-10-16T02:14:37;1.90;;;0.90;;
70414;SDS011;57837;52.064;113.478;2022-10-16T02:17:42;2.72;;;0.90;;
70414;SDS011;57837;52.064;113.478;2022-10-16T02:24:13;4.50;;;1.17;;
70414;SDS011;57837;52.064;113.478;2022-10-16T02:27:30;4.13;;;1.47;;
70414;SDS011;57837;52.064;113.478;2022-10-16T02:30:42;3.10;;;1.95;;
70414;SDS011;57837;52.064;113.478;2022-10-16T02:33:57;1.73;;;0.80;;
70414;SDS011;57837;52.064;113.478;2022-10-16T02:37:02;4.00;;;1.05;;
70414;SDS011;57837;52.064;113.478;2022-10-16T02:40:08;2.00;;;0.77;;
70414;SDS011;57837;52.064;113.478;2022-10-16T02:43:13;1.73;;;0.67;;
70414;SDS011;57837;52.064;113.478;2022-10-16T02:46:17;4.65;;;1.30;;
70414;SDS011;57837;52.064;113.478;2022-10-16T02:49:21;7.95;;;5.15;;
70414;SDS011;57837;52.064;113.478;2022-10-16T02:52:25;4.50;;;2.65;;
70414;SDS011;57837;52.064;113.478;2022-10-16T02:55:30;6.13;;;1.63;;
70414;SDS011;57837;52.064;113.478;2022-10-16T02:58:33;5.97;;;0.87;;
70414;SDS011;57837;52.064;113.478;2022-10-16T03:01:37;6.22;;;1.30;;
70414;SDS011;57837;52.064;113.478;2022-10-16T03:04:41;11.13;;;2.80;;
70414;SDS011;57837;52.064;113.478;2022-10-16T03:07:45;6.43;;;1.48;;
70414;SDS011;57837;52.064;113.478;2022-10-16T03:10:49;3.00;;;0.70;;
70414;SDS011;57837;52.064;113.478;2022-10-16T03:13:53;4.10;;;0.83;;
70414;SDS011;57837;52.064;113.478;2022-10-16T03:16:57;5.25;;;0.88;;
70414;SDS011;57837;52.064;113.478;2022-10-16T03:20:01;4.63;;;1.20;;
70414;SDS011;57837;52.064;113.478;2022-10-16T03:23:06;2.40;;;0.90;;
70414;SDS011;57837;52.064;113.478;2022-10-16T03:26:11;6.28;;;0.90;;
70414;SDS011;57837;52.064;113.478;2022-10-16T03:29:15;3.63;;;0.67;;
70414;SDS011;57837;52.064;113.478;2022-10-16T03:32:19;1.17;;;0.50;;
70414;SDS011;57837;52.064;113.478;2022-10-16T03:35:23;2.10;;;0.70;;
70414;SDS011;57837;52.064;113.478;2022-10-16T03:38:27;3.08;;;0.88;;
70414;SDS011;57837;52.064;113.478;2022-10-16T03:41:31;3.75;;;1.05;;
70414;SDS011;57837;52.064;113.478;2022-10-16T03:44:35;1.47;;;0.53;;
70414;SDS011;57837;52.064;113.478;2022-10-16T03:47:38;10.77;;;0.82;;
70414;SDS011;57837;52.064;113.478;2022-10-16T03:50:42;7.55;;;1.90;;
70414;SDS011;57837;52.064;113.478;2022-10-16T03:53:45;6.32;;;0.98;;
70414;SDS011;57837;52.064;113.478;2022-10-16T03:56:49;6.75;;;1.20;;
70414;SDS011;57837;52.064;113.478;2022-10-16T03:59:53;4.50;;;1.77;;
70414;SDS011;57837;52.064;113.478;2022-10-16T04:02:57;2.83;;;1.20;;
70414;SDS011;57837;52.064;113.478;2022-10-16T04:06:01;3.78;;;1.10;;
70414;SDS011;57837;52.064;113.478;2022-10-16T04:09:05;2.10;;;0.90;;
70414;SDS011;57837;52.064;113.478;2022-10-16T04:12:09;8.25;;;1.70;;
70414;SDS011;57837;52.064;113.478;2022-10-16T04:15:13;6.73;;;2.30;;
70414;SDS011;57837;52.064;113.478;2022-10-16T04:18:16;5.55;;;1.90;;
70414;SDS011;57837;52.064;113.478;2022-10-16T04:21:20;5.13;;;1.80;;
70414;SDS011;57837;52.064;113.478;2022-10-16T04:24:24;4.43;;;1.42;;
70414;SDS011;57837;52.064;113.478;2022-10-16T04:27:28;2.60;;;1.20;;
70414;SDS011;57837;52.064;113.478;2022-10-16T04:30:34;3.30;;;0.90;;
70414;SDS011;57837;52.064;113.478;2022-10-16T04:33:37;2.47;;;0.88;;
70414;SDS011;57837;52.064;113.478;2022-10-16T04:36:40;2.45;;;0.80;;
70414;SDS011;57837;52.064;113.478;2022-10-16T04:39:44;13.10;;;1.20;;
70414;SDS011;57837;52.064;113.478;2022-10-16T04:42:48;5.35;;;1.10;;
70414;SDS011;57837;52.064;113.478;2022-10-16T04:45:52;5.37;;;0.90;;
70414;SDS011;57837;52.064;113.478;2022-10-16T04:48:57;5.82;;;1.05;;
70414;SDS011;57837;52.064;113.478;2022-10-16T04:52:01;8.15;;;1.65;;
70414;SDS011;57837;52.064;113.478;2022-10-16T04:55:06;8.90;;;1.45;;
70414;SDS011;57837;52.064;113.478;2022-10-16T04:58:09;6.25;;;1.17;;
70414;SDS011;57837;52.064;113.478;2022-10-16T05:01:13;7.83;;;1.40;;
70414;SDS011;57837;52.064;113.478;2022-10-16T05:04:17;4.28;;;1.00;;
70414;SDS011;57837;52.064;113.478;2022-10-16T05:07:21;3.35;;;1.50;;
70414;SDS011;57837;52.064;113.478;2022-10-16T05:10:25;5.50;;;1.00;;
70414;SDS011;57837;52.064;113.478;2022-10-16T05:13:28;4.07;;;1.70;;
70414;SDS011;57837;52.064;113.478;2022-10-16T05:16:32;2.73;;;0.73;;
70414;SDS011;57837;52.064;113.478;2022-10-16T05:19:35;8.55;;;0.70;;
70414;SDS011;57837;52.064;113.478;2022-10-16T05:22:39;2.30;;;0.63;;
70414;SDS011;57837;52.064;113.478;2022-10-16T05:25:42;29.40;;;2.05;;
70414;SDS011;57837;52.064;113.478;2022-10-16T05:28:46;6.80;;;0.70;;
70414;SDS011;57837;52.064;113.478;2022-10-16T05:31:51;7.80;;;1.40;;
70414;SDS011;57837;52.064;113.478;2022-10-16T05:34:56;3.78;;;1.30;;
70414;SDS011;57837;52.064;113.478;2022-10-16T05:38:01;8.45;;;2.47;;
70414;SDS011;57837;52.064;113.478;2022-10-16T05:41:05;2.95;;;1.42;;
70414;SDS011;57837;52.064;113.478;2022-10-16T05:44:09;2.13;;;0.80;;
70414;SDS011;57837;52.064;113.478;2022-10-16T05:47:13;5.77;;;0.40;;
70414;SDS011;57837;52.064;113.478;2022-10-16T05:50:17;2.53;;;0.80;;
70414;SDS011;57837;52.064;113.478;2022-10-16T05:53:21;9.23;;;1.08;;
70414;SDS011;57837;52.064;113.478;2022-10-16T05:56:28;7.90;;;0.63;;
70414;SDS011;57837;52.064;113.478;2022-10-16T05:59:32;3.38;;;0.82;;
70414;SDS011;57837;52.064;113.478;2022-10-16T06:02:36;1.87;;;0.60;;
70414;SDS011;57837;52.064;113.478;2022-10-16T06:05:40;6.00;;;1.55;;
70414;SDS011;57837;52.064;113.478;2022-10-16T06:08:45;3.35;;;1.38;;
70414;SDS011;57837;52.064;113.478;2022-10-16T06:11:50;3.00;;;1.02;;
70414;SDS011;57837;52.064;113.478;2022-10-16T06:14:53;5.30;;;1.42;;
70414;SDS011;57837;52.064;113.478;2022-10-16T06:17:57;2.57;;;0.70;;
70414;SDS011;57837;52.064;113.478;2022-10-16T06:21:06;7.00;;;0.98;;
70414;SDS011;57837;52.064;113.478;2022-10-16T06:24:12;2.50;;;1.15;;
70414;SDS011;57837;52.064;113.478;2022-10-16T06:27:15;5.30;;;0.80;;
70414;SDS011;57837;52.064;113.478;2022-10-16T06:30:18;6.00;;;0.70;;
70414;SDS011;57837;52.064;113.478;2022-10-16T06:33:22;1.93;;;0.87;;
70414;SDS011;57837;52.064;113.478;2022-10-16T06:36:26;6.80;;;2.13;;
70414;SDS011;57837;52.064;113.478;2022-10-16T06:39:30;5.13;;;0.98;;
70414;SDS011;57837;52.064;113.478;2022-10-16T06:42:34;3.70;;;0.50;;
70414;SDS011;57837;52.064;113.478;2022-10-16T06:45:37;2.55;;;0.75;;
70414;SDS011;57837;52.064;113.478;2022-10-16T06:48:41;3.20;;;0.90;;
70414;SDS011;57837;52.064;113.478;2022-10-16T06:51:45;2.45;;;1.02;;
70414;SDS011;57837;52.064;113.478;2022-10-16T06:54:49;4.47;;;1.13;;
70414;SDS011;57837;52.064;113.478;2022-10-16T06:57:52;5.65;;;0.82;;
70414;SDS011;57837;52.064;113.478;2022-10-16T07:00:56;2.05;;;0.75;;
70414;SDS011;57837;52.064;113.478;2022-10-16T07:04:00;4.17;;;0.90;;
70414;SDS011;57837;52.064;113.478;2022-10-16T07:07:04;5.65;;;1.20;;
70414;SDS011;57837;52.064;113.478;2022-10-16T07:10:10;3.58;;;1.25;;
70414;SDS011;57837;52.064;113.478;2022-10-16T07:13:14;18.60;;;2.47;;
70414;SDS011;57837;52.064;113.478;2022-10-16T07:16:19;4.32;;;1.20;;
70414;SDS011;57837;52.064;113.478;2022-10-16T07:19:24;3.93;;;1.10;;
70414;SDS011;57837;52.064;113.478;2022-10-16T07:22:33;5.03;;;1.27;;
70414;SDS011;57837;52.064;113.478;2022-10-16T07:25:36;3.25;;;1.40;;
70414;SDS011;57837;52.064;113.478;2022-10-16T07:28:40;7.53;;;1.20;;
70414;SDS011;57837;52.064;113.478;2022-10-16T07:31:47;5.03;;;1.20;;
70414;SDS011;57837;52.064;113.478;2022-10-16T07:34:52;7.67;;;1.30;;
70414;SDS011;57837;52.064;113.478;2022-10-16T07:37:56;7.82;;;1.10;;
70414;SDS011;57837;52.064;113.478;2022-10-16T07:41:01;3.63;;;1.83;;
70414;SDS011;57837;52.064;113.478;2022-10-16T07:44:10;5.85;;;1.10;;
70414;SDS011;57837;52.064;113.478;2022-10-16T07:47:15;3.20;;;0.60;;
70414;SDS011;57837;52.064;113.478;2022-10-16T07:50:18;3.57;;;1.20;;
70414;SDS011;57837;52.064;113.478;2022-10-16T07:53:22;6.63;;;1.55;;
70414;SDS011;57837;52.064;113.478;2022-10-16T07:56:30;5.28;;;1.60;;
70414;SDS011;57837;52.064;113.478;2022-10-16T07:59:42;5.93;;;0.88;;
70414;SDS011;57837;52.064;113.478;2022-10-16T08:02:48;4.65;;;1.00;;
70414;SDS011;57837;52.064;113.478;2022-10-16T08:05:52;5.47;;;1.07;;
70414;SDS011;57837;52.064;113.478;2022-10-16T08:08:55;5.40;;;1.17;;
70414;SDS011;57837;52.064;113.478;2022-10-16T08:11:59;7.68;;;1.65;;
70414;SDS011;57837;52.064;113.478;2022-10-16T08:15:04;7.15;;;2.20;;
70414;SDS011;57837;52.064;113.478;2022-10-16T08:18:10;6.22;;;1.70;;
70414;SDS011;57837;52.064;113.478;2022-10-16T08:21:16;5.23;;;1.13;;
70414;SDS011;57837;52.064;113.478;2022-10-16T08:24:24;2.05;;;0.80;;
70414;SDS011;57837;52.064;113.478;2022-10-16T08:27:31;5.35;;;1.05;;
70414;SDS011;57837;52.064;113.478;2022-10-16T08:30:35;2.90;;;0.70;;
70414;SDS011;57837;52.064;113.478;2022-10-16T08:33:40;4.82;;;1.50;;
70414;SDS011;57837;52.064;113.478;2022-10-16T08:36:46;21.17;;;7.47;;
70414;SDS011;57837;52.064;113.478;2022-10-16T08:39:51;8.90;;;2.15;;
70414;SDS011;57837;52.064;113.478;2022-10-16T08:49:24;5.75;;;2.35;;
70414;SDS011;57837;52.064;113.478;2022-10-16T08:52:32;8.03;;;1.63;;
70414;SDS011;57837;52.064;113.478;2022-10-16T08:55:49;14.55;;;2.42;;
70414;SDS011;57837;52.064;113.478;2022-10-16T08:58:54;10.48;;;3.15;;
70414;SDS011;57837;52.064;113.478;2022-10-16T09:02:13;4.00;;;2.00;;
70414;SDS011;57837;52.064;113.478;2022-10-16T09:12:37;15.52;;;6.53;;
70414;SDS011;57837;52.064;113.478;2022-10-16T09:19:28;20.75;;;6.65;;
70414;SDS011;57837;52.064;113.478;2022-10-16T09:22:36;16.02;;;7.32;;
70414;SDS011;57837;52.064;113.478;2022-10-16T09:25:42;45.27;;;16.40;;
70414;SDS011;57837;52.064;113.478;2022-10-16T09:28:52;22.65;;;8.93;;
70414;SDS011;57837;52.064;113.478;2022-10-16T09:31:56;19.83;;;5.50;;
70414;SDS011;57837;52.064;113.478;2022-10-16T09:35:31;14.18;;;4.75;;
70414;SDS011;57837;52.064;113.478;2022-10-16T09:38:38;22.52;;;10.10;;
70414;SDS011;57837;52.064;113.478;2022-10-16T09:41:43;17.23;;;7.90;;
70414;SDS011;57837;52.064;113.478;2022-10-16T09:44:51;17.65;;;7.70;;
70414;SDS011;57837;52.064;113.478;2022-10-16T09:47:56;16.73;;;5.63;;
70414;SDS011;57837;52.064;113.478;2022-10-16T09:51:01;20.67;;;7.55;;
70414;SDS011;57837;52.064;113.478;2022-10-16T09:57:12;26.47;;;10.77;;
70414;SDS011;57837;52.064;113.478;2022-10-16T10:00:17;35.45;;;11.25;;
70414;SDS011;57837;52.064;113.478;2022-10-16T10:03:33;31.27;;;10.95;;
70414;SDS011;57837;52.064;113.478;2022-10-16T10:09:52;45.00;;;13.30;;
70414;SDS011;57837;52.064;113.478;2022-10-16T10:12:56;51.33;;;15.37;;
70414;SDS011;57837;52.064;113.478;2022-10-16T10:16:00;61.78;;;20.20;;
70414;SDS011;57837;52.064;113.478;2022-10-16T10:19:03;56.72;;;19.98;;
70414;SDS011;57837;52.064;113.478;2022-10-16T10:32:02;63.63;;;21.73;;
70414;SDS011;57837;52.064;113.478;2022-10-16T10:35:14;55.50;;;20.10;;
70414;SDS011;57837;52.064;113.478;2022-10-16T10:41:52;53.88;;;19.40;;
70414;SDS011;57837;52.064;113.478;2022-10-16T10:49:19;94.13;;;30.83;;
70414;SDS011;57837;52.064;113.478;2022-10-16T11:05:56;46.35;;;12.90;;
70414;SDS011;57837;52.064;113.478;2022-10-16T11:15:34;9.32;;;3.80;;
70414;SDS011;57837;52.064;113.478;2022-10-16T11:21:56;11.25;;;3.97;;
70414;SDS011;57837;52.064;113.478;2022-10-16T11:28:32;6.03;;;2.53;;
70414;SDS011;57837;52.064;113.478;2022-10-16T11:31:46;10.43;;;3.00;;
70414;SDS011;57837;52.064;113.478;2022-10-16T11:35:06;9.13;;;3.50;;
70414;SDS011;57837;52.064;113.478;2022-10-16T11:42:18;12.32;;;4.47;;
70414;SDS011;57837;52.064;113.478;2022-10-16T11:48:39;10.45;;;4.30;;
70414;SDS011;57837;52.064;113.478;2022-10-16T11:51:57;11.07;;;3.90;;
70414;SDS011;57837;52.064;113.478;2022-10-16T11:55:21;13.75;;;3.67;;
70414;SDS011;57837;52.064;113.478;2022-10-16T11:58:35;5.80;;;2.95;;
70414;SDS011;57837;52.064;113.478;2022-10-16T12:01:48;7.60;;;3.25;;
70414;SDS011;57837;52.064;113.478;2022-10-16T12:05:11;16.75;;;3.17;;
70414;SDS011;57837;52.064;113.478;2022-10-16T12:08:44;8.80;;;3.00;;
70414;SDS011;57837;52.064;113.478;2022-10-16T12:11:47;16.58;;;3.38;;
70414;SDS011;57837;52.064;113.478;2022-10-16T12:15:00;11.63;;;4.13;;
70414;SDS011;57837;52.064;113.478;2022-10-16T12:18:24;11.18;;;3.30;;
70414;SDS011;57837;52.064;113.478;2022-10-16T12:21:30;11.02;;;3.33;;
70414;SDS011;57837;52.064;113.478;2022-10-16T12:27:39;5.57;;;2.85;;
70414;SDS011;57837;52.064;113.478;2022-10-16T12:30:42;8.02;;;2.70;;
70414;SDS011;57837;52.064;113.478;2022-10-16T12:33:58;10.10;;;2.90;;
70414;SDS011;57837;52.064;113.478;2022-10-16T12:37:21;8.65;;;2.78;;
70414;SDS011;57837;52.064;113.478;2022-10-16T12:40:36;14.13;;;4.27;;
70414;SDS011;57837;52.064;113.478;2022-10-16T12:43:41;9.50;;;3.10;;
70414;SDS011;57837;52.064;113.478;2022-10-16T12:46:47;8.65;;;2.90;;
70414;SDS011;57837;52.064;113.478;2022-10-16T12:49:52;5.45;;;2.38;;
70414;SDS011;57837;52.064;113.478;2022-10-16T12:52:57;7.65;;;2.72;;
70414;SDS011;57837;52.064;113.478;2022-10-16T12:59:21;6.45;;;2.20;;
70414;SDS011;57837;52.064;113.478;2022-10-16T13:02:55;4.97;;;2.50;;
70414;SDS011;57837;52.064;113.478;2022-10-16T13:09:19;6.60;;;2.85;;
70414;SDS011;57837;52.064;113.478;2022-10-16T13:12:45;6.83;;;2.73;;
70414;SDS011;57837;52.064;113.478;2022-10-16T13:16:17;4.78;;;1.70;;
70414;SDS011;57837;52.064;113.478;2022-10-16T13:27:03;7.38;;;2.47;;
70414;SDS011;57837;52.064;113.478;2022-10-16T13:30:27;10.73;;;2.70;;
70414;SDS011;57837;52.064;113.478;2022-10-16T13:33:33;8.77;;;3.60;;
70414;SDS011;57837;52.064;113.478;2022-10-16T13:36:44;5.50;;;1.85;;
70414;SDS011;57837;52.064;113.478;2022-10-16T13:39:49;5.50;;;2.42;;
70414;SDS011;57837;52.064;113.478;2022-10-16T13:42:55;4.93;;;2.40;;
70414;SDS011;57837;52.064;113.478;2022-10-16T13:46:03;8.20;;;2.67;;
70414;SDS011;57837;52.064;113.478;2022-10-16T13:49:16;6.88;;;2.55;;
70414;SDS011;57837;52.064;113.478;2022-10-16T13:52:22;5.28;;;2.42;;
70414;SDS011;57837;52.064;113.478;2022-10-16T13:55:26;5.53;;;1.77;;
70414;SDS011;57837;52.064;113.478;2022-10-16T13:58:30;7.50;;;2.38;;
70414;SDS011;57837;52.064;113.478;2022-10-16T14:01:41;5.27;;;2.20;;
70414;SDS011;57837;52.064;113.478;2022-10-16T14:04:47;5.43;;;2.47;;
70414;SDS011;57837;52.064;113.478;2022-10-16T14:07:52;4.78;;;2.03;;
70414;SDS011;57837;52.064;113.478;2022-10-16T14:10:58;5.35;;;2.17;;
70414;SDS011;57837;52.064;113.478;2022-10-16T14:14:03;7.38;;;3.10;;
70414;SDS011;57837;52.064;113.478;2022-10-16T14:17:13;7.83;;;2.60;;
70414;SDS011;57837;52.064;113.478;2022-10-16T14:20:28;8.18;;;2.80;;
70414;SDS011;57837;52.064;113.478;2022-10-16T14:23:37;8.35;;;3.42;;
70414;SDS011;57837;52.064;113.478;2022-10-16T14:26:42;8.52;;;3.08;;
70414;SDS011;57837;52.064;113.478;2022-10-16T14:30:03;14.68;;;2.95;;
70414;SDS011;57837;52.064;113.478;2022-10-16T14:33:23;12.70;;;3.37;;
70414;SDS011;57837;52.064;113.478;2022-10-16T14:36:35;8.10;;;2.88;;
70414;SDS011;57837;52.064;113.478;2022-10-16T14:39:39;7.15;;;2.83;;
70414;SDS011;57837;52.064;113.478;2022-10-16T14:42:43;7.60;;;2.67;;
70414;SDS011;57837;52.064;113.478;2022-10-16T14:45:52;6.65;;;1.90;;
70414;SDS011;57837;52.064;113.478;2022-10-16T14:49:03;5.20;;;2.10;;
70414;SDS011;57837;52.064;113.478;2022-10-16T14:52:12;4.40;;;1.85;;
70414;SDS011;57837;52.064;113.478;2022-10-16T14:55:17;6.97;;;2.63;;
70414;SDS011;57837;52.064;113.478;2022-10-16T14:58:21;8.45;;;2.85;;
70414;SDS011;57837;52.064;113.478;2022-10-16T15:01:27;8.38;;;3.53;;
70414;SDS011;57837;52.064;113.478;2022-10-16T15:04:31;7.73;;;3.10;;
70414;SDS011;57837;52.064;113.478;2022-10-16T15:07:34;10.95;;;4.97;;
70414;SDS011;57837;52.064;113.478;2022-10-16T15:10:38;11.45;;;4.30;;
70414;SDS011;57837;52.064;113.478;2022-10-16T15:13:44;8.52;;;3.10;;
70414;SDS011;57837;52.064;113.478;2022-10-16T15:16:47;10.25;;;3.30;;
70414;SDS011;57837;52.064;113.478;2022-10-16T15:19:50;6.33;;;2.57;;
70414;SDS011;57837;52.064;113.478;2022-10-16T15:22:54;5.32;;;2.80;;
70414;SDS011;57837;52.064;113.478;2022-10-16T15:25:58;6.28;;;2.63;;
70414;SDS011;57837;52.064;113.478;2022-10-16T15:29:02;8.38;;;2.83;;
70414;SDS011;57837;52.064;113.478;2022-10-16T15:32:05;10.00;;;3.58;;
70414;SDS011;57837;52.064;113.478;2022-10-16T15:35:09;7.43;;;3.00;;
70414;SDS011;57837;52.064;113.478;2022-10-16T15:38:14;9.50;;;3.33;;
70414;SDS011;57837;52.064;113.478;2022-10-16T15:41:18;9.15;;;3.03;;
70414;SDS011;57837;52.064;113.478;2022-10-16T15:44:22;6.50;;;2.15;;
70414;SDS011;57837;52.064;113.478;2022-10-16T15:47:28;3.00;;;1.27;;
70414;SDS011;57837;52.064;113.478;2022-10-16T15:50:32;3.90;;;1.70;;
70414;SDS011;57837;52.064;113.478;2022-10-16T15:53:35;3.85;;;1.30;;
70414;SDS011;57837;52.064;113.478;2022-10-16T15:56:39;4.15;;;1.77;;
70414;SDS011;57837;52.064;113.478;2022-10-16T15:59:43;4.35;;;1.42;;
70414;SDS011;57837;52.064;113.478;2022-10-16T16:02:50;5.68;;;1.95;;
70414;SDS011;57837;52.064;113.478;2022-10-16T16:05:56;4.97;;;1.60;;
70414;SDS011;57837;52.064;113.478;2022-10-16T16:09:00;5.50;;;2.08;;
70414;SDS011;57837;52.064;113.478;2022-10-16T16:12:04;3.47;;;1.58;;
70414;SDS011;57837;52.064;113.478;2022-10-16T16:15:08;4.10;;;1.92;;
70414;SDS011;57837;52.064;113.478;2022-10-16T16:18:12;7.60;;;2.53;;
70414;SDS011;57837;52.064;113.478;2022-10-16T16:21:15;4.47;;;2.10;;
70414;SDS011;57837;52.064;113.478;2022-10-16T16:24:20;7.45;;;2.40;;
70414;SDS011;57837;52.064;113.478;2022-10-16T16:27:23;6.07;;;2.22;;
70414;SDS011;57837;52.064;113.478;2022-10-16T16:30:28;6.53;;;2.65;;
70414;SDS011;57837;52.064;113.478;2022-10-16T16:33:31;6.13;;;2.35;;
70414;SDS011;57837;52.064;113.478;2022-10-16T16:36:36;5.53;;;2.73;;
70414;SDS011;57837;52.064;113.478;2022-10-16T16:39:39;3.72;;;1.70;;
70414;SDS011;57837;52.064;113.478;2022-10-16T16:42:43;5.15;;;2.10;;
70414;SDS011;57837;52.064;113.478;2022-10-16T16:45:47;5.57;;;2.30;;
70414;SDS011;57837;52.064;113.478;2022-10-16T16:48:51;7.63;;;2.83;;
70414;SDS011;57837;52.064;113.478;2022-10-16T16:51:56;6.33;;;2.33;;
70414;SDS011;57837;52.064;113.478;2022-10-16T16:55:00;4.82;;;2.17;;
70414;SDS011;57837;52.064;113.478;2022-10-16T16:58:04;7.97;;;2.72;;
70414;SDS011;57837;52.064;113.478;2022-10-16T17:01:09;5.15;;;2.75;;
70414;SDS011;57837;52.064;113.478;2022-10-16T17:04:21;4.72;;;1.88;;
70414;SDS011;57837;52.064;113.478;2022-10-16T17:07:24;9.63;;;2.43;;
70414;SDS011;57837;52.064;113.478;2022-10-16T17:10:30;4.97;;;2.30;;
70414;SDS011;57837;52.064;113.478;2022-10-16T17:13:33;6.55;;;2.58;;
70414;SDS011;57837;52.064;113.478;2022-10-16T17:16:39;5.53;;;1.83;;
70414;SDS011;57837;52.064;113.478;2022-10-16T17:19:48;5.97;;;1.73;;
70414;SDS011;57837;52.064;113.478;2022-10-16T17:22:53;4.47;;;1.67;;
70414;SDS011;57837;52.064;113.478;2022-10-16T17:25:56;5.57;;;2.53;;
70414;SDS011;57837;52.064;113.478;2022-10-16T17:29:09;8.10;;;3.20;;
70414;SDS011;57837;52.064;113.478;2022-10-16T17:32:14;8.68;;;4.40;;
70414;SDS011;57837;52.064;113.478;2022-10-16T17:35:17;8.50;;;4.43;;
70414;SDS011;57837;52.064;113.478;2022-10-16T17:38:21;7.43;;;2.40;;
70414;SDS011;57837;52.064;113.478;2022-10-16T17:41:24;5.47;;;2.30;;
70414;SDS011;57837;52.064;113.478;2022-10-16T17:44:27;3.00;;;1.42;;
70414;SDS011;57837;52.064;113.478;2022-10-16T17:47:31;2.88;;;1.30;;
70414;SDS011;57837;52.064;113.478;2022-10-16T17:50:38;3.70;;;1.65;;
70414;SDS011;57837;52.064;113.478;2022-10-16T17:53:44;4.30;;;1.90;;
70414;SDS011;57837;52.064;113.478;2022-10-16T17:56:50;3.65;;;1.77;;
70414;SDS011;57837;52.064;113.478;2022-10-16T17:59:53;6.28;;;2.45;;
70414;SDS011;57837;52.064;113.478;2022-10-16T18:02:56;4.03;;;2.00;;
70414;SDS011;57837;52.064;113.478;2022-10-16T18:06:00;6.53;;;2.42;;
70414;SDS011;57837;52.064;113.478;2022-10-16T18:09:03;4.33;;;1.37;;
70414;SDS011;57837;52.064;113.478;2022-10-16T18:12:08;8.50;;;2.20;;
70414;SDS011;57837;52.064;113.478;2022-10-16T18:15:11;6.15;;;2.20;;
70414;SDS011;57837;52.064;113.478;2022-10-16T18:18:14;7.60;;;1.90;;
70414;SDS011;57837;52.064;113.478;2022-10-16T18:21:18;8.90;;;2.65;;
70414;SDS011;57837;52.064;113.478;2022-10-16T18:24:23;10.33;;;2.90;;
70414;SDS011;57837;52.064;113.478;2022-10-16T18:27:28;17.83;;;7.15;;
70414;SDS011;57837;52.064;113.478;2022-10-16T18:30:32;12.43;;;4.03;;
70414;SDS011;57837;52.064;113.478;2022-10-16T18:33:36;9.80;;;3.03;;
70414;SDS011;57837;52.064;113.478;2022-10-16T18:36:40;5.78;;;2.75;;
70414;SDS011;57837;52.064;113.478;2022-10-16T18:39:47;7.28;;;2.83;;
70414;SDS011;57837;52.064;113.478;2022-10-16T18:42:51;5.97;;;2.88;;
70414;SDS011;57837;52.064;113.478;2022-10-16T18:45:58;6.03;;;2.70;;
70414;SDS011;57837;52.064;113.478;2022-10-16T18:49:07;6.53;;;2.70;;
70414;SDS011;57837;52.064;113.478;2022-10-16T18:52:10;5.73;;;2.90;;
70414;SDS011;57837;52.064;113.478;2022-10-16T18:55:14;7.95;;;3.55;;
70414;SDS011;57837;52.064;113.478;2022-10-16T18:58:18;5.55;;;2.92;;
70414;SDS011;57837;52.064;113.478;2022-10-16T19:01:22;5.03;;;3.05;;
70414;SDS011;57837;52.064;113.478;2022-10-16T19:04:26;9.07;;;2.45;;
70414;SDS011;57837;52.064;113.478;2022-10-16T19:07:30;5.10;;;1.10;;
70414;SDS011;57837;52.064;113.478;2022-10-16T19:10:35;6.65;;;1.90;;
70414;SDS011;57837;52.064;113.478;2022-10-16T19:13:40;4.18;;;2.28;;
70414;SDS011;57837;52.064;113.478;2022-10-16T19:16:44;5.00;;;2.45;;
70414;SDS011;57837;52.064;113.478;2022-10-16T19:19:48;10.73;;;2.27;;
70414;SDS011;57837;52.064;113.478;2022-10-16T19:22:51;5.07;;;2.55;;
70414;SDS011;57837;52.064;113.478;2022-10-16T19:26:02;6.78;;;2.38;;
70414;SDS011;57837;52.064;113.478;2022-10-16T19:29:07;3.78;;;2.00;;
70414;SDS011;57837;52.064;113.478;2022-10-16T19:32:11;6.18;;;2.47;;
70414;SDS011;57837;52.064;113.478;2022-10-16T19:35:15;80.27;;;20.93;;
70414;SDS011;57837;52.064;113.478;2022-10-16T19:38:19;14.20;;;5.00;;
70414;SDS011;57837;52.064;113.478;2022-10-16T19:41:23;12.35;;;7.68;;
70414;SDS011;57837;52.064;113.478;2022-10-16T19:44:27;9.68;;;4.88;;
70414;SDS011;57837;52.064;113.478;2022-10-16T19:47:30;5.60;;;3.27;;
70414;SDS011;57837;52.064;113.478;2022-10-16T19:50:33;6.63;;;3.20;;
70414;SDS011;57837;52.064;113.478;2022-10-16T19:53:36;3.70;;;1.55;;
70414;SDS011;57837;52.064;113.478;2022-10-16T19:56:39;2.70;;;1.50;;
70414;SDS011;57837;52.064;113.478;2022-10-16T19:59:44;3.45;;;1.73;;
70414;SDS011;57837;52.064;113.478;2022-10-16T20:02:47;2.95;;;1.27;;
70414;SDS011;57837;52.064;113.478;2022-10-16T20:05:53;2.08;;;1.10;;